createdAt,value
2017-07-15T00:01:16.504Z,5.57
2017-07-15T00:03:43.894Z,4.83
2017-07-15T00:06:11.287Z,4.03
2017-07-15T00:08:38.880Z,3.97
2017-07-15T00:11:06.280Z,4.00
2017-07-15T00:13:33.671Z,3.83
2017-07-15T00:16:01.077Z,3.70
2017-07-15T00:18:28.468Z,3.97
2017-07-15T00:20:55.869Z,4.40
2017-07-15T00:23:23.256Z,3.53
2017-07-15T00:25:50.650Z,3.47
2017-07-15T00:28:18.039Z,3.37
2017-07-15T00:30:45.436Z,3.50
2017-07-15T00:33:12.829Z,3.37
2017-07-15T00:35:40.220Z,3.23
2017-07-15T00:38:07.617Z,3.87
2017-07-15T00:40:35.025Z,3.30
2017-07-15T00:43:02.414Z,3.33
2017-07-15T00:45:29.814Z,3.27
2017-07-15T00:47:57.208Z,3.57
2017-07-15T00:50:24.616Z,3.80
2017-07-15T00:52:51.990Z,3.40
2017-07-15T00:55:19.377Z,3.50
2017-07-15T00:57:46.776Z,4.00
2017-07-15T01:00:14.171Z,3.97
2017-07-15T01:02:41.567Z,3.27
2017-07-15T01:05:08.956Z,3.40
2017-07-15T01:07:36.352Z,3.33
2017-07-15T01:10:03.747Z,3.47
2017-07-15T01:12:31.144Z,3.90
2017-07-15T01:14:58.532Z,3.53
2017-07-15T01:17:25.927Z,3.27
2017-07-15T01:19:53.323Z,3.97
2017-07-15T01:22:20.715Z,3.50
2017-07-15T01:24:48.110Z,3.40
2017-07-15T01:27:15.515Z,4.20
2017-07-15T01:29:42.920Z,3.70
2017-07-15T01:32:10.532Z,3.63
2017-07-15T01:34:37.927Z,4.10
2017-07-15T01:37:05.327Z,3.77
2017-07-15T01:39:32.732Z,3.50
2017-07-15T01:42:00.124Z,3.57
2017-07-15T01:44:27.517Z,3.40
2017-07-15T01:46:54.915Z,3.53
2017-07-15T01:49:22.318Z,3.57
2017-07-15T01:51:49.708Z,3.00
2017-07-15T01:54:17.091Z,3.03
2017-07-15T01:56:44.513Z,3.00
2017-07-15T01:59:11.901Z,3.00
2017-07-15T02:01:39.299Z,3.30
2017-07-15T02:04:06.694Z,2.93
2017-07-15T02:06:34.084Z,2.50
2017-07-15T02:09:01.491Z,2.90
2017-07-15T02:11:28.876Z,3.57
2017-07-15T02:13:56.317Z,4.43
2017-07-15T02:16:23.676Z,3.37
2017-07-15T02:18:51.068Z,2.60
2017-07-15T02:21:18.472Z,4.07
2017-07-15T02:23:45.851Z,3.07
2017-07-15T02:26:13.243Z,3.30
2017-07-15T02:28:40.657Z,3.60
2017-07-15T02:31:08.051Z,3.40
2017-07-15T02:33:35.448Z,3.50
2017-07-15T02:36:02.840Z,3.20
2017-07-15T02:38:30.452Z,2.50
2017-07-15T02:40:57.847Z,3.17
2017-07-15T02:43:25.255Z,3.17
2017-07-15T02:45:52.641Z,4.13
2017-07-15T02:48:20.051Z,2.80
2017-07-15T02:50:47.441Z,3.97
2017-07-15T02:53:14.839Z,2.67
2017-07-15T02:55:42.451Z,3.57
2017-07-15T02:58:09.848Z,2.87
2017-07-15T03:00:37.244Z,3.10
2017-07-15T03:03:04.633Z,3.03
2017-07-15T03:05:32.028Z,4.23
2017-07-15T03:07:59.427Z,3.50
2017-07-15T03:10:26.840Z,3.63
2017-07-15T03:12:54.232Z,3.80
2017-07-15T03:15:21.623Z,3.30
2017-07-15T03:17:49.015Z,3.70
2017-07-15T03:20:16.632Z,2.83
2017-07-15T03:22:44.023Z,3.93
2017-07-15T03:25:11.420Z,3.87
2017-07-15T03:27:38.821Z,3.90
2017-07-15T03:30:06.220Z,3.60
2017-07-15T03:32:33.611Z,3.20
2017-07-15T03:35:01.014Z,4.73
2017-07-15T03:37:28.398Z,2.93
2017-07-15T03:39:55.795Z,4.20
2017-07-15T03:42:23.183Z,3.70
2017-07-15T03:44:50.583Z,3.60
2017-07-15T03:47:17.974Z,4.63
2017-07-15T03:49:45.374Z,4.20
2017-07-15T03:52:12.772Z,4.10
2017-07-15T03:54:40.168Z,4.47
2017-07-15T03:57:07.576Z,4.80
2017-07-15T03:59:34.975Z,5.47
2017-07-15T04:02:02.366Z,5.10
2017-07-15T04:04:29.778Z,5.10
2017-07-15T04:06:57.153Z,4.53
2017-07-15T04:09:24.555Z,5.33
2017-07-15T04:11:51.950Z,4.30
2017-07-15T04:14:19.348Z,4.20
2017-07-15T04:16:46.742Z,4.50
2017-07-15T04:19:14.144Z,3.50
2017-07-15T04:21:41.536Z,3.83
2017-07-15T04:24:08.951Z,4.50
2017-07-15T04:26:36.341Z,4.57
2017-07-15T04:29:03.732Z,4.73
2017-07-15T04:31:31.173Z,4.70
2017-07-15T04:33:58.783Z,4.30
2017-07-15T04:36:26.191Z,4.70
2017-07-15T04:38:53.567Z,4.77
2017-07-15T04:41:20.959Z,4.73
2017-07-15T04:43:48.357Z,4.43
2017-07-15T04:46:15.752Z,4.17
2017-07-15T04:48:43.144Z,4.40
2017-07-15T04:51:10.547Z,5.30
2017-07-15T04:53:37.934Z,5.33
2017-07-15T04:56:05.331Z,5.70
2017-07-15T04:58:32.719Z,5.50
2017-07-15T05:01:00.139Z,5.40
2017-07-15T05:03:27.531Z,5.30
2017-07-15T05:05:54.936Z,6.57
2017-07-15T05:08:22.326Z,5.93
2017-07-15T05:10:49.710Z,4.80
2017-07-15T05:13:17.112Z,6.73
2017-07-15T05:15:44.515Z,7.57
2017-07-15T05:18:11.917Z,6.30
2017-07-15T05:20:39.529Z,7.27
2017-07-15T05:23:06.930Z,6.20
2017-07-15T05:25:34.327Z,6.37
2017-07-15T05:28:01.768Z,6.70
2017-07-15T05:30:29.176Z,6.00
2017-07-15T05:32:56.571Z,7.40
2017-07-15T05:35:23.971Z,7.60
2017-07-15T05:37:51.364Z,6.90
2017-07-15T05:40:18.748Z,7.27
2017-07-15T05:42:46.147Z,9.60
2017-07-15T05:45:13.544Z,10.03
2017-07-15T05:47:40.943Z,8.10
2017-07-15T05:50:08.345Z,8.80
2017-07-15T05:52:35.748Z,8.10
2017-07-15T05:55:03.148Z,8.57
2017-07-15T05:57:30.544Z,8.70
2017-07-15T05:59:58.163Z,7.60
2017-07-15T06:02:25.564Z,8.40
2017-07-15T06:04:52.967Z,7.83
2017-07-15T06:07:20.365Z,6.83
2017-07-15T06:09:47.752Z,6.97
2017-07-15T06:12:15.153Z,7.77
2017-07-15T06:14:42.553Z,7.40
2017-07-15T06:17:09.953Z,7.97
2017-07-15T06:19:37.348Z,6.80
2017-07-15T06:22:04.749Z,7.03
2017-07-15T06:24:32.139Z,6.17
2017-07-15T06:26:59.537Z,6.90
2017-07-15T06:29:26.930Z,6.67
2017-07-15T06:31:54.332Z,5.90
2017-07-15T06:34:21.751Z,6.20
2017-07-15T06:36:49.153Z,5.93
2017-07-15T06:39:16.548Z,7.00
2017-07-15T06:41:43.959Z,7.50
2017-07-15T06:44:11.342Z,6.47
2017-07-15T06:46:38.743Z,6.93
2017-07-15T06:49:06.134Z,7.10
2017-07-15T06:51:33.558Z,6.80
2017-07-15T06:54:00.961Z,6.40
2017-07-15T06:56:28.358Z,5.13
2017-07-15T06:58:55.752Z,5.67
2017-07-15T07:01:23.143Z,5.93
2017-07-15T07:03:50.545Z,7.10
2017-07-15T07:06:17.947Z,5.30
2017-07-15T07:08:45.335Z,6.67
2017-07-15T07:11:12.727Z,5.60
2017-07-15T07:13:40.119Z,5.37
2017-07-15T07:16:07.514Z,6.23
2017-07-15T07:18:34.916Z,6.30
2017-07-15T07:21:02.312Z,6.33
2017-07-15T07:23:29.699Z,6.13
2017-07-15T07:25:57.091Z,6.50
2017-07-15T07:28:24.483Z,6.53
2017-07-15T07:30:51.882Z,7.20
2017-07-15T07:33:19.297Z,5.97
2017-07-15T07:35:46.684Z,7.23
2017-07-15T07:38:14.082Z,5.67
2017-07-15T07:40:41.472Z,6.97
2017-07-15T07:43:09.087Z,8.33
2017-07-15T07:45:36.488Z,8.07
2017-07-15T07:48:03.889Z,10.00
2017-07-15T07:50:31.287Z,10.20
2017-07-15T07:52:58.692Z,9.80
2017-07-15T07:55:26.083Z,9.80
2017-07-15T07:57:53.699Z,10.80
2017-07-15T08:00:21.102Z,10.50
2017-07-15T08:02:48.513Z,11.13
2017-07-15T08:05:15.903Z,11.50
2017-07-15T08:07:43.346Z,12.10
2017-07-15T08:10:10.739Z,13.67
2017-07-15T08:12:38.137Z,13.83
2017-07-15T08:15:05.535Z,13.70
2017-07-15T08:17:32.940Z,12.47
2017-07-15T08:20:00.550Z,12.37
2017-07-15T08:22:27.951Z,10.40
2017-07-15T08:24:55.360Z,9.70
2017-07-15T08:27:22.761Z,9.77
2017-07-15T08:29:50.162Z,9.63
2017-07-15T08:32:17.565Z,10.70
2017-07-15T08:34:44.980Z,10.50
2017-07-15T08:37:12.381Z,9.20
2017-07-15T08:39:39.779Z,8.80
2017-07-15T08:42:07.295Z,8.40
2017-07-15T08:44:34.711Z,7.03
2017-07-15T08:47:02.108Z,7.03
2017-07-15T08:49:29.513Z,5.53
2017-07-15T08:51:56.910Z,6.67
2017-07-15T08:54:24.303Z,4.73
2017-07-15T08:56:51.687Z,5.47
2017-07-15T08:59:19.084Z,5.67
2017-07-15T09:01:46.502Z,5.57
2017-07-15T09:04:14.270Z,5.13
2017-07-15T09:06:41.745Z,4.20
2017-07-15T09:09:09.139Z,4.20
2017-07-15T09:11:36.535Z,2.73
2017-07-15T09:14:03.933Z,2.67
2017-07-15T09:16:31.323Z,3.30
2017-07-15T09:18:58.715Z,3.70
2017-07-15T09:21:26.096Z,2.83
2017-07-15T09:23:53.519Z,3.10
2017-07-15T09:26:20.907Z,3.77
2017-07-15T09:28:48.299Z,2.90
2017-07-15T09:31:15.695Z,2.73
2017-07-15T09:33:43.080Z,2.20
2017-07-15T09:36:10.480Z,2.73
2017-07-15T09:38:37.868Z,3.40
2017-07-15T09:41:05.496Z,3.90
2017-07-15T09:43:32.885Z,3.30
2017-07-15T09:46:00.274Z,3.90
2017-07-15T09:48:27.671Z,3.60
2017-07-15T09:50:55.066Z,3.50
2017-07-15T09:53:22.451Z,3.10
2017-07-15T09:55:49.846Z,3.37
2017-07-15T09:58:17.259Z,4.20
2017-07-15T10:00:44.867Z,4.27
2017-07-15T10:03:12.271Z,3.67
2017-07-15T10:05:39.674Z,2.93
2017-07-15T10:08:07.075Z,2.77
2017-07-15T10:10:34.478Z,3.43
2017-07-15T10:13:01.868Z,3.40
2017-07-15T10:15:29.492Z,2.97
2017-07-15T10:17:56.875Z,2.60
2017-07-15T10:20:24.268Z,2.40
2017-07-15T10:22:51.655Z,3.30
2017-07-15T10:25:19.044Z,2.50
2017-07-15T10:27:46.444Z,2.73
2017-07-15T10:30:13.829Z,2.57
2017-07-15T10:32:41.222Z,3.00
2017-07-15T10:35:08.616Z,2.37
2017-07-15T10:37:36.003Z,2.47
2017-07-15T10:40:03.426Z,2.10
2017-07-15T10:42:30.815Z,2.63
2017-07-15T10:44:58.204Z,2.50
2017-07-15T10:47:25.601Z,2.17
2017-07-15T10:49:52.979Z,3.07
2017-07-15T10:52:20.379Z,1.87
2017-07-15T10:54:47.769Z,2.40
2017-07-15T10:57:15.163Z,2.20
2017-07-15T10:59:42.557Z,1.70
2017-07-15T11:02:09.942Z,2.10
2017-07-15T11:04:37.331Z,2.17
2017-07-15T11:07:04.737Z,2.10
2017-07-15T11:09:32.121Z,1.93
2017-07-15T11:11:59.519Z,2.40
2017-07-15T11:14:26.908Z,2.20
2017-07-15T11:16:54.631Z,1.87
2017-07-15T11:19:22.039Z,2.03
2017-07-15T11:21:49.438Z,2.20
2017-07-15T11:24:16.843Z,2.13
2017-07-15T11:26:44.247Z,2.13
2017-07-15T11:29:11.638Z,1.90
2017-07-15T11:31:39.035Z,1.87
2017-07-15T11:34:06.455Z,2.10
2017-07-15T11:36:33.819Z,1.70
2017-07-15T11:39:01.215Z,1.80
2017-07-15T11:41:28.611Z,2.30
2017-07-15T11:43:55.999Z,2.17
2017-07-15T11:46:23.400Z,2.03
2017-07-15T11:48:50.785Z,2.10
2017-07-15T11:51:19.671Z,1.87
2017-07-15T13:15:44.052Z,2.23
2017-07-15T13:18:12.239Z,2.30
2017-07-15T13:20:39.639Z,3.07
2017-07-15T13:23:07.047Z,2.57
2017-07-15T13:25:34.432Z,2.30
2017-07-15T13:28:01.832Z,2.40
2017-07-15T13:30:29.223Z,2.70
2017-07-15T13:32:56.662Z,2.63
2017-07-15T13:35:24.055Z,2.07
2017-07-15T13:37:51.454Z,2.77
2017-07-15T13:40:18.847Z,3.03
2017-07-15T13:42:46.239Z,2.67
2017-07-15T13:45:13.646Z,2.77
2017-07-15T13:47:41.036Z,1.93
2017-07-15T13:50:08.429Z,2.57
2017-07-15T13:52:35.819Z,2.40
2017-07-15T13:55:03.214Z,2.87
2017-07-15T13:57:30.599Z,2.30
2017-07-15T13:59:57.990Z,2.60
2017-07-15T14:02:25.376Z,2.93
2017-07-15T14:04:52.776Z,2.30
2017-07-15T14:07:20.164Z,2.20
2017-07-15T14:09:47.556Z,2.77
2017-07-15T14:12:14.940Z,2.33
2017-07-15T14:14:42.343Z,2.50
2017-07-15T14:17:09.727Z,2.00
2017-07-15T14:19:37.132Z,2.13
2017-07-15T14:22:04.516Z,2.13
2017-07-15T14:24:31.924Z,2.00
2017-07-15T14:26:59.302Z,1.80
2017-07-15T14:29:26.703Z,1.97
2017-07-15T14:31:54.088Z,1.90
2017-07-15T14:34:21.489Z,1.90
2017-07-15T14:36:48.872Z,1.77
2017-07-15T14:39:16.264Z,1.50
2017-07-15T14:41:43.653Z,2.00
2017-07-15T14:44:11.049Z,2.00
2017-07-15T14:46:38.435Z,1.73
2017-07-15T14:49:05.822Z,1.50
2017-07-15T14:51:33.215Z,1.40
2017-07-15T14:54:00.615Z,1.67
2017-07-15T14:56:28.011Z,1.50
2017-07-15T14:58:55.396Z,1.70
2017-07-15T15:01:22.791Z,1.60
2017-07-15T15:03:50.190Z,1.50
2017-07-15T15:06:17.579Z,2.00
2017-07-15T15:08:44.959Z,1.67
2017-07-15T15:11:12.358Z,1.90
2017-07-15T15:13:39.761Z,1.50
2017-07-15T15:16:07.171Z,2.13
2017-07-15T15:18:34.544Z,2.50
2017-07-15T15:21:01.949Z,2.27
2017-07-15T15:23:29.329Z,1.90
2017-07-15T15:25:56.724Z,3.30
2017-07-15T15:28:24.140Z,3.43
2017-07-15T15:30:51.519Z,2.63
2017-07-15T15:33:18.945Z,4.47
2017-07-15T15:35:46.351Z,3.83
2017-07-15T15:38:13.942Z,3.83
2017-07-15T15:40:41.344Z,3.47
2017-07-15T15:43:08.947Z,6.23
2017-07-15T15:45:36.381Z,3.20
2017-07-15T15:48:03.779Z,1.70
2017-07-15T15:50:31.176Z,2.93
2017-07-15T15:52:58.568Z,2.63
2017-07-15T15:55:25.971Z,1.80
2017-07-15T15:57:53.368Z,1.80
2017-07-15T16:00:20.765Z,1.50
2017-07-15T16:02:48.155Z,1.70
2017-07-15T16:05:15.547Z,1.60
2017-07-15T16:07:42.936Z,1.97
2017-07-15T16:10:10.328Z,1.20
2017-07-15T16:12:37.768Z,1.57
2017-07-15T16:15:05.155Z,1.80
2017-07-15T16:17:32.547Z,1.63
2017-07-15T16:19:59.944Z,1.80
2017-07-15T16:22:27.345Z,1.30
2017-07-15T16:24:54.732Z,1.87
2017-07-15T16:27:22.136Z,1.60
2017-07-15T16:29:49.519Z,1.30
2017-07-15T16:32:17.136Z,1.73
2017-07-15T16:34:44.524Z,1.27
2017-07-15T16:37:11.928Z,1.40
2017-07-15T16:39:39.328Z,2.63
2017-07-15T16:42:06.721Z,1.63
2017-07-15T16:44:34.328Z,1.40
2017-07-15T16:47:01.731Z,1.60
2017-07-15T16:49:29.117Z,1.70
2017-07-15T16:51:56.515Z,2.27
2017-07-15T16:54:23.895Z,1.80
2017-07-15T16:56:51.292Z,1.67
2017-07-15T16:59:18.688Z,1.97
2017-07-15T17:01:46.088Z,1.60
2017-07-15T17:04:13.487Z,1.33
2017-07-15T17:06:41.588Z,2.10
2017-07-15T17:09:08.978Z,2.17
2017-07-15T17:11:36.371Z,1.90
2017-07-15T17:14:03.772Z,2.10
2017-07-15T17:16:31.170Z,1.93
2017-07-15T17:18:58.551Z,2.23
2017-07-15T17:21:25.948Z,1.93
2017-07-15T17:23:53.550Z,2.33
2017-07-15T17:26:20.939Z,2.07
2017-07-15T17:28:48.337Z,1.90
2017-07-15T17:31:15.944Z,1.50
2017-07-15T17:33:43.365Z,1.30
2017-07-15T17:36:10.756Z,2.00
2017-07-15T17:38:38.143Z,1.47
2017-07-15T17:41:05.555Z,2.10
2017-07-15T17:43:32.944Z,1.47
2017-07-15T17:46:00.367Z,1.43
2017-07-15T17:48:27.779Z,1.80
2017-07-15T17:50:55.173Z,2.10
2017-07-15T17:53:22.600Z,1.37
2017-07-15T17:55:50.210Z,1.90
2017-07-15T17:58:17.601Z,1.93
2017-07-15T18:00:45.208Z,2.00
2017-07-15T18:03:12.596Z,2.50
2017-07-15T18:05:39.996Z,1.60
2017-07-15T18:08:07.384Z,1.80
2017-07-15T18:10:34.784Z,1.93
2017-07-15T18:13:02.172Z,1.57
2017-07-15T18:15:29.573Z,1.60
2017-07-15T18:17:56.963Z,1.70
2017-07-15T18:20:24.356Z,1.97
2017-07-15T18:22:51.746Z,2.03
2017-07-15T18:25:19.140Z,2.13
2017-07-15T18:27:46.530Z,1.90
2017-07-15T18:30:13.951Z,2.00
2017-07-15T18:32:41.324Z,2.23
2017-07-15T18:35:08.721Z,2.17
2017-07-15T18:37:36.109Z,1.77
2017-07-15T18:40:03.736Z,2.30
2017-07-15T18:42:31.125Z,2.43
2017-07-15T18:44:58.526Z,2.63
2017-07-15T18:47:25.924Z,2.20
2017-07-15T18:49:53.309Z,2.43
2017-07-15T18:52:20.699Z,2.27
2017-07-15T18:54:48.089Z,2.30
2017-07-15T18:57:15.487Z,1.87
2017-07-15T18:59:42.953Z,2.30
2017-07-15T19:02:13.705Z,1.77
2017-07-15T19:04:41.136Z,2.27
2017-07-15T19:07:08.522Z,2.00
2017-07-15T19:09:36.122Z,2.13
2017-07-15T19:12:03.534Z,1.90
2017-07-15T19:14:30.920Z,2.00
2017-07-15T19:16:58.311Z,3.00
2017-07-15T19:19:25.708Z,2.43
2017-07-15T19:21:53.095Z,2.77
2017-07-15T19:24:20.491Z,2.20
2017-07-15T19:26:47.883Z,2.37
2017-07-15T19:29:15.488Z,2.10
2017-07-15T19:31:42.933Z,2.37
2017-07-15T19:34:10.326Z,2.20
2017-07-15T19:36:37.739Z,2.83
2017-07-15T19:39:05.124Z,2.30
2017-07-15T19:41:32.526Z,2.50
2017-07-15T19:43:59.904Z,2.53
2017-07-15T19:46:27.299Z,2.10
2017-07-15T19:48:54.691Z,2.27
2017-07-15T19:51:22.099Z,3.17
2017-07-15T19:53:49.488Z,2.43
2017-07-15T19:56:16.928Z,2.83
2017-07-15T19:58:44.357Z,2.70
2017-07-15T20:01:11.747Z,3.07
2017-07-15T20:03:39.136Z,2.50
2017-07-15T20:06:06.527Z,3.10
2017-07-15T20:08:33.922Z,2.97
2017-07-15T20:11:01.312Z,3.20
2017-07-15T20:13:28.712Z,2.63
2017-07-15T20:15:56.100Z,3.17
2017-07-15T20:18:23.504Z,2.93
2017-07-15T20:20:50.894Z,3.30
2017-07-15T20:23:18.510Z,2.90
2017-07-15T20:25:46.108Z,3.30
2017-07-15T20:28:13.499Z,3.00
2017-07-15T20:30:40.888Z,2.73
2017-07-15T20:33:08.491Z,4.53
2017-07-15T20:35:35.891Z,8.23
2017-07-15T20:38:03.286Z,7.07
2017-07-15T20:40:30.672Z,3.00
2017-07-15T20:42:58.067Z,3.37
2017-07-15T20:45:25.453Z,3.60
2017-07-15T20:47:53.056Z,2.90
2017-07-15T20:50:20.446Z,2.50
2017-07-15T20:53:05.721Z,2.37
2017-07-15T20:55:33.109Z,3.13
2017-07-15T20:58:00.503Z,2.83
2017-07-15T21:00:27.947Z,2.77
2017-07-15T21:02:55.345Z,3.00
2017-07-15T21:05:22.730Z,3.23
2017-07-15T21:07:50.131Z,2.73
2017-07-15T21:10:17.519Z,2.60
2017-07-15T21:12:44.970Z,2.73
2017-07-15T21:15:12.563Z,3.03
2017-07-15T21:17:39.956Z,2.53
2017-07-15T21:20:07.347Z,2.77
2017-07-15T21:22:34.731Z,2.70
2017-07-15T21:25:02.134Z,2.50
2017-07-15T21:27:29.528Z,2.77
2017-07-15T21:29:56.933Z,2.63
2017-07-15T21:32:24.320Z,3.07
2017-07-15T21:34:51.720Z,3.20
2017-07-15T21:37:19.112Z,3.00
2017-07-15T21:39:46.515Z,2.97
2017-07-15T21:42:13.911Z,3.40
2017-07-15T21:44:41.303Z,3.30
2017-07-15T21:47:08.706Z,2.70
2017-07-15T21:49:36.114Z,3.10
2017-07-15T21:52:03.506Z,3.00
2017-07-15T21:54:30.910Z,3.70
2017-07-15T21:56:58.292Z,3.40
2017-07-15T21:59:25.686Z,3.53
2017-07-15T22:01:53.076Z,2.83
2017-07-15T22:04:20.464Z,2.80
2017-07-15T22:06:47.860Z,3.77
2017-07-15T22:09:15.472Z,3.67
2017-07-15T22:11:42.867Z,6.73
2017-07-15T22:14:10.270Z,7.87
2017-07-15T22:16:37.679Z,6.80
2017-07-15T22:19:05.072Z,5.00
2017-07-15T22:21:32.471Z,3.43
2017-07-15T22:23:59.859Z,3.80
2017-07-15T22:26:27.259Z,3.27
2017-07-15T22:28:54.655Z,3.93
2017-07-15T22:31:22.051Z,4.90
2017-07-15T22:33:49.439Z,4.60
2017-07-15T22:36:17.049Z,6.03
2017-07-15T22:38:44.439Z,6.40
2017-07-15T22:41:11.843Z,6.33
2017-07-15T22:43:39.236Z,7.20
2017-07-15T22:46:06.623Z,6.73
2017-07-15T22:48:34.020Z,7.00
2017-07-15T22:51:01.423Z,8.63
2017-07-15T22:53:28.820Z,12.97
2017-07-15T22:55:56.212Z,8.73
2017-07-15T22:58:23.620Z,7.10
2017-07-15T23:00:51.013Z,6.30
2017-07-15T23:03:18.404Z,6.03
2017-07-15T23:05:45.803Z,6.20
2017-07-15T23:08:13.192Z,5.50
2017-07-15T23:10:40.589Z,5.90
2017-07-15T23:13:07.992Z,5.43
2017-07-15T23:15:35.399Z,5.00
2017-07-15T23:18:02.783Z,4.87
2017-07-15T23:20:30.187Z,4.73
2017-07-15T23:22:57.575Z,4.60
2017-07-15T23:25:24.971Z,4.67
2017-07-15T23:27:52.367Z,5.60
2017-07-15T23:30:19.757Z,4.90
2017-07-15T23:32:47.143Z,5.60
2017-07-15T23:35:14.560Z,5.00
2017-07-15T23:37:41.942Z,6.20
2017-07-15T23:40:09.347Z,4.63
2017-07-15T23:42:36.744Z,5.00
2017-07-15T23:45:04.130Z,6.07
2017-07-15T23:47:31.533Z,6.33
2017-07-15T23:49:59.132Z,5.80
2017-07-15T23:52:26.547Z,5.33
2017-07-15T23:54:53.924Z,6.33
2017-07-15T23:57:21.328Z,4.90
2017-07-15T23:59:48.712Z,5.43
